createdAt,value
2019-03-04T00:48:01.986Z,95.70
2019-03-04T00:50:33.648Z,95.60
2019-03-04T00:53:05.759Z,95.60
2019-03-04T00:55:35.536Z,95.60
2019-03-04T00:58:05.270Z,95.60
2019-03-04T01:00:45.367Z,95.50
2019-03-04T01:03:22.235Z,95.50
2019-03-04T01:05:51.906Z,95.50
2019-03-04T01:08:21.123Z,95.40
2019-03-04T01:10:50.707Z,95.50
2019-03-04T01:13:20.307Z,95.40
2019-03-04T01:15:50.070Z,95.40
2019-03-04T01:18:19.800Z,95.40
2019-03-04T01:20:54.885Z,95.30
2019-03-04T01:23:27.010Z,95.20
2019-03-04T01:25:56.314Z,95.10
2019-03-04T01:28:25.655Z,95.10
2019-03-04T01:30:55.298Z,95.00
2019-03-04T01:37:04.759Z,95.00
2019-03-04T01:39:33.976Z,94.90
2019-03-04T01:42:03.316Z,94.80
2019-03-04T01:44:32.664Z,94.80
2019-03-04T01:47:01.983Z,94.80
2019-03-04T01:49:34.239Z,94.80
2019-03-04T01:52:03.486Z,94.80
2019-03-04T01:54:32.944Z,94.80
2019-03-04T01:57:02.663Z,94.80
2019-03-04T01:59:32.267Z,94.80
2019-03-04T02:02:01.560Z,94.80
2019-03-04T02:04:31.559Z,94.80
2019-03-04T02:07:01.139Z,94.80
2019-03-04T02:09:30.712Z,94.80
2019-03-04T02:12:00.012Z,94.80
2019-03-04T02:14:29.325Z,94.80
2019-03-04T02:16:58.634Z,94.80
2019-03-04T02:22:02.688Z,94.80
2019-03-04T02:24:32.018Z,94.80
2019-03-04T02:27:01.664Z,94.80
2019-03-04T02:29:31.478Z,94.90
2019-03-04T02:32:00.895Z,94.90
2019-03-04T02:38:10.434Z,94.90
2019-03-04T02:40:39.824Z,94.80
2019-03-04T02:43:09.427Z,94.80
2019-03-04T02:45:38.802Z,94.80
2019-03-04T02:48:08.118Z,94.80
2019-03-04T02:50:37.520Z,94.80
2019-03-04T02:53:06.801Z,94.80
2019-03-04T02:58:10.710Z,94.80
2019-03-04T03:00:40.318Z,94.80
2019-03-04T03:03:12.651Z,94.80
2019-03-04T03:05:42.096Z,94.80
2019-03-04T03:08:11.554Z,94.80
2019-03-04T03:10:40.839Z,94.80
2019-03-04T03:13:10.473Z,94.80
2019-03-04T03:15:39.703Z,94.80
2019-03-04T03:18:09.146Z,94.80
2019-03-04T03:20:38.712Z,94.70
2019-03-04T03:23:08.124Z,94.70
2019-03-04T03:25:37.404Z,94.60
2019-03-04T03:28:06.857Z,94.60
2019-03-04T03:30:36.179Z,94.60
2019-03-04T03:33:05.577Z,94.50
2019-03-04T03:35:34.859Z,94.40
2019-03-04T03:38:04.195Z,94.40
2019-03-04T03:40:33.575Z,94.20
2019-03-04T03:43:03.110Z,94.20
2019-03-04T03:45:32.522Z,94.20
2019-03-04T03:51:41.922Z,94.20
2019-03-04T03:54:11.375Z,94.10
2019-03-04T03:56:40.651Z,94.10
2019-03-04T03:59:12.847Z,94.10
2019-03-04T04:01:42.296Z,94.10
2019-03-04T04:07:51.929Z,94.20
2019-03-04T04:10:21.304Z,94.10
2019-03-04T04:12:50.659Z,94.10
2019-03-04T04:15:20.379Z,94.10
2019-03-04T04:21:29.646Z,94.20
2019-03-04T04:23:58.962Z,94.20
2019-03-04T04:26:28.280Z,94.20
2019-03-04T04:29:13.124Z,94.20
2019-03-04T04:31:43.432Z,94.20
2019-03-04T04:34:12.836Z,94.10
2019-03-04T04:37:36.248Z,94.10
2019-03-04T04:40:06.111Z,94.20
2019-03-04T04:42:35.474Z,94.10
2019-03-04T04:45:04.895Z,94.00
2019-03-04T04:47:38.001Z,94.00
2019-03-04T04:50:09.531Z,93.90
2019-03-04T04:52:39.201Z,93.90
2019-03-04T04:58:48.649Z,93.90
2019-03-04T05:01:18.388Z,93.80
2019-03-04T05:03:47.838Z,93.80
2019-03-04T05:06:17.201Z,93.80
2019-03-04T05:08:46.871Z,93.80
2019-03-04T05:14:56.016Z,93.80
2019-03-04T05:17:25.757Z,93.70
2019-03-04T05:19:55.130Z,93.70
2019-03-04T05:22:24.996Z,93.80
2019-03-04T05:24:54.640Z,93.70
2019-03-04T05:27:24.118Z,93.70
2019-03-04T05:29:53.598Z,93.70
2019-03-04T05:32:23.490Z,93.70
2019-03-04T05:34:55.934Z,93.70
2019-03-04T05:37:25.480Z,93.70
2019-03-04T05:39:54.917Z,93.60
2019-03-04T05:42:24.619Z,93.60
2019-03-04T05:47:29.252Z,93.50
2019-03-04T05:53:39.296Z,93.40
2019-03-04T05:56:16.430Z,93.30
2019-03-04T05:58:48.807Z,93.30
2019-03-04T06:01:31.276Z,93.20
2019-03-04T06:07:44.223Z,93.20
2019-03-04T06:10:15.485Z,93.10
2019-03-04T06:12:48.072Z,93.20
2019-03-04T06:15:19.965Z,93.10
2019-03-04T06:21:32.533Z,93.00
2019-03-04T06:24:02.101Z,93.00
2019-03-04T06:26:31.965Z,93.00
2019-03-04T06:29:01.310Z,92.90
2019-03-04T06:31:30.915Z,92.80
2019-03-04T06:34:02.767Z,92.80
2019-03-04T06:40:49.208Z,92.80
2019-03-04T06:43:19.445Z,92.20
2019-03-04T07:20:53.412Z,94.10
2019-03-04T07:44:49.002Z,94.50
2019-03-04T08:05:52.081Z,93.60
2019-03-04T08:08:24.680Z,93.20
2019-03-04T08:11:51.165Z,93.20
2019-03-04T08:14:39.734Z,93.30
2019-03-04T08:21:33.214Z,93.00
2019-03-04T08:28:31.016Z,92.90
2019-03-04T08:31:01.004Z,92.50
2019-03-04T08:33:32.226Z,92.70
2019-03-04T08:36:07.503Z,92.70
2019-03-04T08:38:43.649Z,92.70
2019-03-04T08:46:54.201Z,92.40
2019-03-04T08:49:25.829Z,92.30
2019-03-04T08:51:55.404Z,92.20
2019-03-04T08:54:27.405Z,92.60
2019-03-04T08:57:03.884Z,92.50
2019-03-04T08:59:31.789Z,92.40
2019-03-04T09:02:01.788Z,92.20
2019-03-04T09:04:31.437Z,92.10
2019-03-04T09:07:04.157Z,91.90
2019-03-04T09:09:33.607Z,91.90
2019-03-04T09:12:08.465Z,91.80
2019-03-04T09:14:38.017Z,91.70
2019-03-04T09:17:10.634Z,91.20
2019-03-04T09:19:38.649Z,91.00
2019-03-04T09:22:08.330Z,91.10
2019-03-04T09:24:37.583Z,90.90
2019-03-04T09:27:07.781Z,90.90
2019-03-04T09:29:37.713Z,90.80
2019-03-04T09:32:07.399Z,90.50
2019-03-04T09:34:39.219Z,90.60
2019-03-04T09:40:48.981Z,90.70
2019-03-04T09:43:23.573Z,90.60
2019-03-04T09:46:05.600Z,90.50
2019-03-04T09:49:45.581Z,90.40
2019-03-04T09:52:14.996Z,90.50
2019-03-04T10:01:04.328Z,90.30
2019-03-04T10:03:51.990Z,90.40
2019-03-04T10:10:41.578Z,90.00
2019-03-04T10:13:41.613Z,89.90
2019-03-04T10:17:09.944Z,90.00
2019-03-04T10:20:35.388Z,90.00
2019-03-04T10:23:44.369Z,90.30
2019-03-04T10:26:22.868Z,90.40
2019-03-04T10:29:21.729Z,90.30
2019-03-04T10:32:31.945Z,90.30
2019-03-04T10:35:57.822Z,90.10
2019-03-04T10:38:42.990Z,89.20
2019-03-04T10:41:46.987Z,88.50
2019-03-04T10:44:47.113Z,89.40
2019-03-04T10:47:19.028Z,88.60
2019-03-04T10:53:28.623Z,89.20
2019-03-04T10:55:57.866Z,89.10
2019-03-04T11:02:08.033Z,89.50
2019-03-04T11:04:37.290Z,89.30
2019-03-04T11:07:18.933Z,89.80
2019-03-04T11:09:48.743Z,89.70
2019-03-04T11:20:45.351Z,90.10
2019-03-04T11:24:09.326Z,90.20
2019-03-04T11:26:38.940Z,90.00
2019-03-04T11:29:47.660Z,90.00
2019-03-04T11:32:17.680Z,90.20
2019-03-04T11:34:48.344Z,90.40
2019-03-04T11:37:17.955Z,90.50
2019-03-04T11:39:55.517Z,90.50
2019-03-04T11:42:25.018Z,90.40
2019-03-04T11:44:54.273Z,90.40
2019-03-04T11:48:16.951Z,90.40
2019-03-04T11:50:46.687Z,90.50
2019-03-04T11:53:15.968Z,90.40
2019-03-04T11:55:45.334Z,90.30
2019-03-04T11:58:14.825Z,90.30
2019-03-04T12:00:53.262Z,90.40
2019-03-04T12:03:22.652Z,90.70
2019-03-04T12:05:51.986Z,91.10
2019-03-04T12:08:21.253Z,91.50
2019-03-04T12:10:50.500Z,91.70
2019-03-04T12:13:20.034Z,92.00
2019-03-04T12:15:49.965Z,92.20
2019-03-04T12:18:19.217Z,92.50
2019-03-04T12:24:31.952Z,92.70
2019-03-04T12:33:16.607Z,92.90
2019-03-04T12:54:12.121Z,93.40
2019-03-04T13:11:24.459Z,93.60
2019-03-04T13:20:19.579Z,93.50
2019-03-04T13:22:48.970Z,93.50
2019-03-04T13:28:07.858Z,94.00
2019-03-04T13:30:31.419Z,93.50
2019-03-04T13:36:40.732Z,93.70
2019-03-04T13:43:14.442Z,93.60
2019-03-04T13:52:04.299Z,93.60
2019-03-04T13:59:52.375Z,93.10
2019-03-04T14:13:34.818Z,92.90
2019-03-04T15:05:02.417Z,91.80
2019-03-04T15:07:46.238Z,91.60
2019-03-04T15:10:38.430Z,91.50
2019-03-04T17:23:26.741Z,89.90
2019-03-04T17:25:56.253Z,89.80
2019-03-04T17:28:25.706Z,89.80
2019-03-04T17:30:55.561Z,89.90
2019-03-04T17:33:27.277Z,89.90
2019-03-04T17:35:56.728Z,89.90
2019-03-04T17:42:06.389Z,90.00
2019-03-04T17:44:35.741Z,90.00
2019-03-04T17:47:05.227Z,90.10
2019-03-04T17:49:34.913Z,90.10
2019-03-04T17:52:04.434Z,90.10
2019-03-04T17:54:34.139Z,90.10
2019-03-04T17:57:03.848Z,90.00
2019-03-04T17:59:33.477Z,90.10
2019-03-04T18:02:02.960Z,90.10
2019-03-04T18:04:32.173Z,90.30
2019-03-04T18:07:06.301Z,90.20
2019-03-04T18:09:35.876Z,90.10
2019-03-04T18:12:09.944Z,90.00
2019-03-04T18:15:26.514Z,90.00
2019-03-04T18:21:36.513Z,90.30
2019-03-04T18:24:05.991Z,90.00
2019-03-04T18:26:42.576Z,90.00
2019-03-04T18:29:42.948Z,89.90
2019-03-04T18:32:54.338Z,90.00
2019-03-04T18:35:49.962Z,89.70
2019-03-04T18:38:52.055Z,89.90
2019-03-04T18:41:59.604Z,89.90
2019-03-04T18:44:50.665Z,89.90
2019-03-04T18:47:46.147Z,89.90
2019-03-04T18:50:15.206Z,89.80
2019-03-04T18:56:25.021Z,89.80
2019-03-04T18:58:54.199Z,89.90
2019-03-04T19:01:39.418Z,89.80
2019-03-04T19:04:12.773Z,89.90
2019-03-04T19:10:27.200Z,90.00
2019-03-04T19:13:12.178Z,89.90
2019-03-04T19:30:18.040Z,89.90
2019-03-04T19:38:55.707Z,90.00
2019-03-04T19:41:25.278Z,90.00
2019-03-04T19:43:56.456Z,90.00
2019-03-04T19:46:26.297Z,90.00
2019-03-04T19:49:07.292Z,90.00
2019-03-04T19:51:36.652Z,90.10
2019-03-04T19:57:02.957Z,90.10
2019-03-04T19:59:34.990Z,90.00
2019-03-04T20:02:07.795Z,90.00
2019-03-04T20:04:41.137Z,90.10
2019-03-04T20:14:09.718Z,90.10
2019-03-04T20:17:31.921Z,90.00
2019-03-04T20:20:36.417Z,90.10
2019-03-04T20:23:15.711Z,90.10
2019-03-04T21:15:35.122Z,90.20
2019-03-04T21:17:51.881Z,90.30
2019-03-04T21:21:31.765Z,90.50
2019-03-04T21:32:19.406Z,91.10
2019-03-04T21:35:30.044Z,91.30
2019-03-04T21:53:52.968Z,91.70
2019-03-04T21:57:31.489Z,91.80
2019-03-04T22:35:51.875Z,92.50
2019-03-04T22:46:36.336Z,93.00
2019-03-04T22:57:06.189Z,92.70
2019-03-04T23:15:16.419Z,92.80
2019-03-04T23:21:48.611Z,92.70
2019-03-04T23:30:34.938Z,92.60
